createdAt,value
2019-04-05T00:03:25.781Z,58.02
2019-04-05T00:08:27.338Z,57.98
2019-04-05T00:13:28.895Z,58.04
2019-04-05T00:18:30.531Z,58.06
2019-04-05T00:23:32.152Z,58.10
2019-04-05T00:28:33.859Z,58.17
2019-04-05T00:33:35.432Z,58.35
2019-04-05T00:38:36.972Z,58.43
2019-04-05T00:43:38.551Z,58.80
2019-04-05T00:48:40.207Z,58.77
2019-04-05T00:53:41.787Z,59.31
2019-04-05T00:58:43.365Z,59.86
2019-04-05T01:03:44.975Z,60.05
2019-04-05T01:08:46.866Z,60.30
2019-04-05T01:13:49.061Z,59.72
2019-04-05T01:18:50.653Z,59.75
2019-04-05T01:23:53.100Z,59.76
2019-04-05T01:28:54.838Z,60.28
2019-04-05T01:33:56.666Z,60.53
2019-04-05T01:38:58.314Z,60.23
2019-04-05T01:43:59.910Z,60.39
2019-04-05T01:49:01.585Z,60.85
2019-04-05T01:54:03.364Z,61.41
2019-04-05T01:59:05.067Z,61.15
2019-04-05T02:04:06.714Z,61.63
2019-04-05T02:09:10.323Z,61.70
2019-04-05T02:14:12.109Z,61.44
2019-04-05T02:19:13.784Z,61.06
2019-04-05T02:24:15.455Z,61.19
2019-04-05T02:29:17.230Z,61.52
2019-04-05T02:34:18.781Z,61.34
2019-04-05T02:39:20.381Z,61.30
2019-04-05T02:44:22.372Z,61.23
2019-04-05T02:49:25.879Z,61.35
2019-04-05T02:54:27.988Z,61.55
2019-04-05T02:59:30.609Z,61.71
2019-04-05T03:04:32.636Z,61.85
2019-04-05T03:09:34.489Z,61.76
2019-04-05T03:14:36.591Z,61.85
2019-04-05T03:19:38.347Z,61.85
2019-04-05T03:24:41.178Z,62.34
2019-04-05T03:29:43.023Z,62.74
2019-04-05T03:34:44.743Z,62.69
2019-04-05T03:39:46.425Z,62.98
2019-04-05T03:44:48.110Z,62.55
2019-04-05T03:49:49.854Z,62.29
2019-04-05T03:54:51.660Z,62.23
2019-04-05T03:59:53.345Z,62.29
2019-04-05T04:04:55.081Z,62.28
2019-04-05T04:09:56.639Z,62.41
2019-04-05T04:15:13.743Z,62.52
2019-04-05T04:20:33.788Z,62.62
2019-04-05T04:25:36.269Z,62.78
2019-04-05T04:30:37.909Z,62.86
2019-04-05T04:35:40.091Z,62.96
2019-04-05T04:40:41.894Z,62.98
2019-04-05T04:45:43.567Z,63.07
2019-04-05T04:50:45.907Z,63.17
2019-04-05T04:55:47.567Z,63.30
2019-04-05T05:00:49.326Z,63.61
2019-04-05T05:05:51.087Z,63.65
2019-04-05T05:10:52.782Z,63.96
2019-04-05T05:15:54.437Z,64.37
2019-04-05T05:20:56.243Z,64.56
2019-04-05T05:25:57.898Z,64.81
2019-04-05T05:30:59.592Z,64.83
2019-04-05T05:36:01.464Z,64.34
2019-04-05T05:41:03.133Z,64.27
2019-04-05T05:46:04.805Z,64.29
2019-04-05T05:51:06.458Z,64.42
2019-04-05T05:56:08.031Z,64.49
2019-04-05T06:01:09.642Z,64.57
2019-04-05T06:06:11.256Z,64.95
2019-04-05T06:11:12.936Z,65.06
2019-04-05T06:16:14.804Z,65.09
2019-04-05T06:21:16.500Z,65.11
2019-04-05T06:26:18.190Z,65.45
2019-04-05T06:31:19.740Z,65.61
2019-04-05T06:36:21.275Z,65.65
2019-04-05T06:41:23.043Z,65.79
2019-04-05T06:46:24.730Z,65.83
2019-04-05T06:51:26.448Z,66.03
2019-04-05T06:56:28.092Z,66.11
2019-04-05T07:01:29.794Z,66.12
2019-04-05T07:06:31.585Z,66.09
2019-04-05T07:11:33.155Z,66.05
2019-04-05T07:16:34.838Z,66.14
2019-04-05T07:21:36.573Z,66.07
2019-04-05T07:26:38.150Z,65.91
2019-04-05T07:31:39.871Z,65.88
2019-04-05T07:36:41.694Z,65.86
2019-04-05T07:41:43.272Z,65.93
2019-04-05T07:46:46.511Z,65.97
2019-04-05T07:51:48.531Z,65.97
2019-04-05T07:56:50.266Z,66.02
2019-04-05T08:01:51.987Z,65.99
2019-04-05T08:06:55.082Z,66.02
2019-04-05T08:11:57.427Z,65.83
2019-04-05T08:16:59.167Z,65.40
2019-04-05T08:22:00.879Z,65.43
2019-04-05T08:27:02.802Z,65.16
2019-04-05T08:32:14.001Z,64.89
2019-04-05T08:37:07.870Z,64.86
2019-04-05T08:42:10.963Z,64.29
2019-04-05T08:47:12.839Z,64.35
2019-04-05T08:52:14.435Z,64.65
2019-04-05T08:57:15.988Z,64.85
2019-04-05T09:02:17.551Z,64.75
2019-04-05T09:07:19.099Z,64.51
2019-04-05T09:12:20.688Z,64.44
2019-04-05T09:17:22.271Z,64.44
2019-04-05T09:22:24.098Z,64.29
2019-04-05T09:27:25.704Z,63.95
2019-04-05T09:32:27.258Z,63.84
2019-04-05T09:37:28.930Z,63.74
2019-04-05T09:42:30.465Z,63.50
2019-04-05T09:47:32.020Z,63.39
2019-04-05T09:52:33.679Z,63.52
2019-04-05T09:57:35.281Z,63.65
2019-04-05T10:02:36.873Z,63.74
2019-04-05T10:07:48.727Z,63.83
2019-04-05T10:12:41.870Z,63.44
2019-04-05T10:17:43.436Z,62.93
2019-04-05T10:22:44.977Z,62.73
2019-04-05T10:27:46.575Z,62.24
2019-04-05T10:32:48.130Z,62.37
2019-04-05T10:37:49.650Z,62.16
2019-04-05T10:42:51.208Z,61.78
2019-04-05T10:47:52.804Z,61.52
2019-04-05T10:52:54.436Z,61.66
2019-04-05T10:57:56.093Z,61.41
2019-04-05T11:02:57.743Z,61.50
2019-04-05T11:07:59.405Z,61.18
2019-04-05T11:13:01.013Z,61.43
2019-04-05T11:18:04.607Z,61.64
2019-04-05T11:23:06.334Z,60.65
2019-04-05T11:28:07.890Z,60.06
2019-04-05T11:33:09.629Z,59.87
2019-04-05T11:38:12.837Z,59.63
2019-04-05T11:43:15.041Z,59.94
2019-04-05T11:48:16.676Z,59.83
2019-04-05T11:53:18.372Z,60.28
2019-04-05T11:58:19.912Z,60.15
2019-04-05T12:03:21.749Z,60.30
2019-04-05T12:08:23.283Z,60.60
2019-04-05T12:13:24.826Z,60.34
2019-04-05T12:18:26.405Z,57.00
2019-04-05T12:23:27.944Z,55.14
2019-04-05T12:28:29.568Z,56.41
2019-04-05T12:33:31.110Z,58.40
2019-04-05T12:38:33.410Z,60.01
2019-04-05T12:43:35.117Z,60.25
2019-04-05T12:48:36.663Z,60.22
2019-04-05T12:53:38.210Z,60.03
2019-04-05T12:58:39.749Z,59.75
2019-04-05T13:03:41.319Z,58.31
2019-04-05T13:08:42.927Z,57.35
2019-04-05T13:13:44.637Z,57.25
2019-04-05T13:18:46.173Z,57.50
2019-04-05T13:23:47.709Z,58.01
2019-04-05T13:28:49.331Z,56.98
2019-04-05T13:33:54.351Z,54.61
2019-04-05T13:38:59.456Z,53.96
2019-04-05T13:44:01.592Z,54.33
2019-04-05T13:49:03.014Z,56.47
2019-04-05T13:54:04.646Z,55.52
2019-04-05T13:59:06.203Z,53.38
2019-04-05T14:04:07.757Z,52.21
2019-04-05T14:09:10.389Z,51.46
2019-04-05T14:14:12.657Z,51.46
2019-04-05T14:19:14.256Z,51.08
2019-04-05T14:24:15.902Z,50.39
2019-04-05T14:29:17.562Z,50.51
2019-04-05T14:34:19.253Z,50.81
2019-04-05T14:39:20.991Z,51.14
2019-04-05T14:44:22.537Z,51.57
2019-04-05T14:49:24.185Z,51.75
2019-04-05T14:54:25.729Z,51.64
2019-04-05T14:59:27.266Z,51.08
2019-04-05T15:04:28.807Z,51.10
2019-04-05T15:09:30.346Z,51.05
2019-04-05T15:14:32.585Z,51.15
2019-04-05T15:19:34.312Z,50.67
2019-04-05T15:24:36.095Z,50.17
2019-04-05T15:29:37.638Z,50.10
2019-04-05T15:34:39.291Z,49.78
2019-04-05T15:39:40.829Z,48.31
2019-04-05T15:44:42.377Z,47.51
2019-04-05T15:49:43.937Z,46.09
2019-04-05T15:54:46.603Z,44.85
2019-04-05T15:59:48.211Z,43.56
2019-04-05T16:04:49.752Z,45.09
2019-04-05T16:09:51.527Z,47.41
2019-04-05T16:14:53.095Z,46.79
2019-04-05T16:19:54.730Z,47.05
2019-04-05T16:24:56.331Z,46.51
2019-04-05T16:29:58.343Z,46.33
2019-04-05T16:35:00.034Z,43.48
2019-04-05T16:40:01.779Z,46.22
2019-04-05T16:45:04.868Z,49.31
2019-04-05T16:50:07.249Z,51.67
2019-04-05T16:55:09.745Z,53.65
2019-04-05T17:00:12.066Z,54.27
2019-04-05T17:05:13.744Z,54.24
2019-04-05T17:10:15.388Z,54.39
2019-04-05T17:15:17.051Z,54.65
2019-04-05T17:20:18.617Z,55.05
2019-04-05T17:25:20.253Z,55.55
2019-04-05T17:30:21.947Z,56.28
2019-04-05T17:35:23.865Z,56.77
2019-04-05T17:40:25.917Z,56.93
2019-04-05T17:45:27.785Z,57.20
2019-04-05T17:50:32.367Z,57.42
2019-04-05T17:55:34.019Z,57.67
2019-04-05T18:00:35.863Z,57.85
2019-04-05T18:05:37.434Z,57.98
2019-04-05T18:10:38.988Z,58.11
2019-04-05T18:15:51.851Z,58.33
2019-04-05T18:20:44.019Z,58.61
2019-04-05T18:25:45.564Z,58.60
2019-04-05T18:30:47.128Z,58.54
2019-04-05T18:35:48.673Z,58.67
2019-04-05T18:40:50.619Z,58.72
2019-04-05T18:45:52.147Z,58.77
2019-04-05T18:50:53.695Z,59.01
2019-04-05T18:55:55.224Z,58.87
2019-04-05T19:00:56.771Z,59.12
2019-04-05T19:05:58.332Z,59.04
2019-04-05T19:11:00.014Z,59.12
2019-04-05T19:16:01.691Z,59.25
2019-04-05T19:21:03.240Z,59.39
2019-04-05T19:26:04.907Z,59.49
2019-04-05T19:51:20.567Z,59.63
2019-04-05T19:56:22.120Z,59.72
2019-04-05T20:01:23.747Z,59.80
2019-04-05T20:06:25.424Z,59.98
2019-04-05T20:11:26.987Z,59.99
2019-04-05T20:16:28.762Z,60.20
2019-04-05T20:21:30.447Z,60.40
2019-04-05T20:26:31.999Z,60.43
2019-04-05T20:31:33.537Z,60.29
2019-04-05T20:36:35.221Z,60.34
2019-04-05T20:41:36.824Z,60.44
2019-04-05T20:46:39.316Z,60.54
2019-04-05T20:51:40.880Z,60.64
2019-04-05T20:56:42.427Z,60.65
2019-04-05T21:01:43.975Z,60.67
2019-04-05T21:06:45.566Z,60.80
2019-04-05T21:11:47.237Z,60.90
2019-04-05T21:16:48.919Z,61.00
2019-04-05T21:21:50.523Z,61.08
2019-04-05T21:26:52.089Z,61.04
2019-04-05T21:31:53.682Z,61.15
2019-04-05T21:36:55.371Z,61.31
2019-04-05T21:41:57.138Z,61.40
2019-04-05T21:46:58.816Z,61.39
2019-04-05T21:52:00.521Z,61.45
2019-04-05T21:57:02.209Z,61.55
2019-04-05T22:02:04.247Z,61.61
2019-04-05T22:07:06.010Z,61.62
2019-04-05T22:12:07.849Z,61.55
2019-04-05T22:17:09.549Z,61.63
2019-04-05T22:22:11.403Z,61.62
2019-04-05T22:27:13.100Z,61.81
2019-04-05T22:32:14.692Z,61.79
2019-04-05T22:37:16.447Z,61.91
2019-04-05T22:42:18.126Z,62.06
2019-04-05T22:47:19.885Z,62.08
2019-04-05T22:52:21.635Z,62.04
2019-04-05T22:57:23.357Z,62.18
2019-04-05T23:02:25.128Z,62.21
2019-04-05T23:07:26.829Z,62.22
2019-04-05T23:12:28.578Z,62.16
2019-04-05T23:17:30.278Z,62.34
2019-04-05T23:22:32.028Z,62.49
2019-04-05T23:27:33.797Z,62.38
2019-04-05T23:32:35.561Z,62.35
2019-04-05T23:37:37.301Z,62.36
2019-04-05T23:42:38.989Z,62.39
2019-04-05T23:47:40.727Z,62.41
2019-04-05T23:52:42.339Z,62.40
2019-04-05T23:57:44.103Z,62.54
